Tingo Maria, Peru
Current Conditions -  °F | °C
As of 5:00 AM on Tuesday 21 Oct 2014 (Local Time) from SPCL Reporting Station
Few Clouds Few Clouds  
Wind Chill: 75°   Ceiling: Unl
Heat Index: 75°   Visibility: 6mi
Dew Point: 73°   Wind: 1mph
Humidity: 94%   Direction: NA
Pressure: 29.88"   Gusts: NA
Location:  9.29°S, 75.99°W
Report Text: SPCL 211000Z VRB01KT 9999 FEW015 24/23 Q1012 RMK PP000
Loading
Personal Weather Stations






























Interactive Weather Map
Tropical Storm Tracking
New forecast layout! Learn more

10-Day Weather Forecast

Advertisements
Track Severe Weather on mobile